Time;durP1;ratioP1;P1;durP2;ratioP2;P2;SDS_P1;SDS_P2;PMS_P1;PMS_P2;Temp;Humidity;BMP_temperature;BMP_pressure;BME280_temperature;BME280_humidity;BME280_pressure;Samples;Min_cycle;Max_cycle;Signal;HPM_P1;HPM_P2
2021/12/01 00:02:05;;;;;;;2.97;0.38;;;;;;;12.38;100.00;97533.06;6222531;22;20082;-59
2021/12/01 00:05:09;;;;;;;0.52;0.40;;;;;;;12.36;100.00;97544.03;6223243;22;20122;-59
2021/12/01 00:08:12;;;;;;;0.20;0.10;;;;;;;12.42;100.00;97530.69;6222208;22;20039;-59
2021/12/01 00:11:14;;;;;;;0.10;0.10;;;;;;;12.45;100.00;97515.66;6222346;22;20358;-59
2021/12/01 00:14:17;;;;;;;0.10;0.10;;;;;;;12.44;100.00;97508.56;6223881;22;20023;-59
2021/12/01 00:17:20;;;;;;;0.10;0.10;;;;;;;12.36;100.00;97496.59;6219808;23;20095;-59
2021/12/01 00:20:24;;;;;;;0.32;0.32;;;;;;;12.39;100.00;97489.94;6236747;22;20469;-60
2021/12/01 00:23:27;;;;;;;0.30;0.22;;;;;;;12.36;100.00;97479.84;6218726;22;20030;-59
2021/12/01 00:26:31;;;;;;;0.10;0.10;;;;;;;12.32;100.00;97469.03;6237923;22;20042;-59
2021/12/01 00:29:34;;;;;;;0.10;0.10;;;;;;;12.27;100.00;97466.34;6242809;22;20043;-59
2021/12/01 00:32:38;;;;;;;0.10;0.10;;;;;;;12.27;100.00;97455.19;6243670;22;20050;-59
2021/12/01 00:35:41;;;;;;;0.10;0.10;;;;;;;12.23;100.00;97454.78;6243155;22;20019;-59
2021/12/01 00:38:44;;;;;;;0.10;0.10;;;;;;;12.16;100.00;97465.34;6243233;22;20310;-60
2021/12/01 00:41:49;;;;;;;2.28;0.40;;;;;;;12.13;100.00;97466.44;6242907;22;20098;-60
2021/12/01 00:44:57;;;;;;;0.22;0.22;;;;;;;12.14;100.00;97478.34;6243396;22;20023;-60
2021/12/01 00:48:00;;;;;;;0.20;0.10;;;;;;;12.04;100.00;97471.75;6224091;22;20127;-60
2021/12/01 00:51:03;;;;;;;1.45;0.25;;;;;;;11.98;100.00;97471.09;6222728;22;20027;-60
2021/12/01 00:54:06;;;;;;;0.20;0.10;;;;;;;11.92;100.00;97474.03;6221803;22;20078;-59
2021/12/01 00:57:10;;;;;;;0.93;0.43;;;;;;;11.87;100.00;97482.50;6223921;22;20027;-59
2021/12/01 01:00:13;;;;;;;0.25;0.25;;;;;;;11.82;100.00;97488.97;6222026;22;20031;-60
2021/12/01 01:03:18;;;;;;;0.30;0.30;;;;;;;11.71;100.00;97478.84;6222478;22;20349;-60
2021/12/01 01:06:21;;;;;;;0.10;0.10;;;;;;;11.66;100.00;97487.28;6221338;22;20023;-60
2021/12/01 01:09:30;;;;;;;0.57;0.20;;;;;;;11.58;100.00;97492.78;6220719;22;20032;-60
2021/12/01 01:19:20;;;;;;;4.28;0.90;;;;;;;11.53;100.00;97467.78;6236587;22;20035;-59
2021/12/01 01:22:23;;;;;;;0.30;0.30;;;;;;;11.42;100.00;97468.78;6220583;22;20027;-60
2021/12/01 01:25:26;;;;;;;0.28;0.25;;;;;;;11.38;100.00;97460.00;6214043;22;20023;-59
2021/12/01 01:28:29;;;;;;;0.73;0.45;;;;;;;11.33;100.00;97475.56;6218845;22;20035;-59
2021/12/01 01:31:33;;;;;;;12.77;0.95;;;;;;;11.26;100.00;97473.41;6213119;22;20389;-59
2021/12/01 01:34:36;;;;;;;2.72;0.20;;;;;;;11.19;100.00;97460.16;6213682;22;20345;-58
2021/12/01 01:37:40;;;;;;;0.98;0.25;;;;;;;11.17;100.00;97453.63;6213931;22;20047;-59
2021/12/01 01:40:43;;;;;;;3.22;1.27;;;;;;;11.18;100.00;97491.31;6213656;22;20396;-58
2021/12/01 01:43:48;;;;;;;0.60;0.52;;;;;;;11.15;100.00;97490.34;6214144;22;20350;-58
2021/12/01 01:46:51;;;;;;;0.65;0.20;;;;;;;11.12;100.00;97496.25;6213785;22;20024;-58
2021/12/01 01:50:17;;;;;;;3.88;0.40;;;;;;;11.07;100.00;97497.88;6213185;22;20153;-58
2021/12/01 01:53:22;;;;;;;0.20;0.20;;;;;;;11.08;100.00;97496.59;6213349;22;20493;-58
2021/12/01 01:56:26;;;;;;;0.30;0.22;;;;;;;11.07;100.00;97511.78;6213149;23;20087;-59
2021/12/01 01:59:30;;;;;;;0.20;0.20;;;;;;;11.04;100.00;97500.97;6238106;22;20031;-58
2021/12/01 02:02:33;;;;;;;5.15;1.17;;;;;;;10.99;100.00;97504.63;6214147;22;20074;-58
2021/12/01 02:05:37;;;;;;;0.10;0.10;;;;;;;10.93;100.00;97490.06;6243057;22;20031;-59
2021/12/01 02:08:42;;;;;;;0.52;0.50;;;;;;;10.85;100.00;97500.34;6243421;22;20027;-58
2021/12/01 02:11:46;;;;;;;1.10;0.70;;;;;;;10.82;100.00;97512.53;6243532;22;20523;-59
2021/12/01 02:14:49;;;;;;;0.10;0.10;;;;;;;10.71;100.00;97521.06;6244222;22;20135;-59
2021/12/01 02:17:52;;;;;;;0.68;0.17;;;;;;;10.62;100.00;97528.56;6243768;22;20039;-60
2021/12/01 02:21:01;;;;;;;0.90;0.47;;;;;;;10.68;100.00;97522.16;6226280;22;20075;-60
2021/12/01 02:24:07;;;;;;;0.10;0.10;;;;;;;10.63;100.00;97518.91;6223894;22;20168;-59
2021/12/01 02:27:12;;;;;;;8.35;1.88;;;;;;;10.61;100.00;97532.63;6222742;22;20069;-59
2021/12/01 02:30:15;;;;;;;0.20;0.20;;;;;;;10.62;100.00;97533.38;6213111;23;20349;-58
2021/12/01 02:33:18;;;;;;;5.38;0.57;;;;;;;10.63;100.00;97524.47;6213594;22;20465;-59
2021/12/01 02:36:23;;;;;;;0.20;0.20;;;;;;;10.64;100.00;97531.56;6220387;22;20377;-59
2021/12/01 02:39:27;;;;;;;0.13;0.13;;;;;;;10.53;100.00;97531.00;6224435;22;20047;-59
2021/12/01 02:42:30;;;;;;;0.10;0.10;;;;;;;10.45;100.00;97530.88;6213028;23;20330;-58
2021/12/01 02:45:33;;;;;;;0.38;0.17;;;;;;;10.42;100.00;97533.97;6212252;22;20476;-58
2021/12/01 02:48:41;;;;;;;0.85;0.38;;;;;;;10.36;100.00;97544.44;6212948;22;20027;-59
2021/12/01 02:51:44;;;;;;;0.20;0.20;;;;;;;10.29;100.00;97540.25;6213149;22;20043;-58
2021/12/01 02:54:47;;;;;;;0.10;0.10;;;;;;;10.22;100.00;97535.28;6212820;22;20077;-59
2021/12/01 02:57:53;;;;;;;0.10;0.10;;;;;;;10.15;100.00;97558.16;6213302;22;20020;-58
2021/12/01 03:00:59;;;;;;;0.63;0.52;;;;;;;10.08;100.00;97555.97;6224803;22;20034;-58
2021/12/01 03:04:02;;;;;;;0.60;0.40;;;;;;;10.16;100.00;97592.28;6223774;22;20031;-58
2021/12/01 03:07:05;;;;;;;0.22;0.22;;;;;;;10.18;100.00;97573.78;6223273;22;20070;-59
2021/12/01 03:10:09;;;;;;;0.95;0.25;;;;;;;10.12;100.00;97589.81;6221975;22;20074;-59
2021/12/01 03:13:13;;;;;;;0.10;0.10;;;;;;;10.08;100.00;97592.09;6222261;22;20060;-59
2021/12/01 03:16:16;;;;;;;8.25;0.85;;;;;;;10.06;100.00;97589.09;6221980;22;20067;-58
2021/12/01 03:19:19;;;;;;;2.50;0.30;;;;;;;10.01;100.00;97606.59;6222631;22;20054;-58
2021/12/01 03:22:23;;;;;;;0.10;0.10;;;;;;;10.03;100.00;97617.97;6219781;22;20078;-58
2021/12/01 03:25:27;;;;;;;0.10;0.10;;;;;;;9.99;100.00;97623.06;6237117;22;20027;-59
2021/12/01 03:28:30;;;;;;;0.10;0.10;;;;;;;9.76;100.00;97644.09;6217278;22;20101;-58
2021/12/01 03:31:33;;;;;;;0.20;0.20;;;;;;;9.64;100.00;97646.25;6212527;23;20072;-58
2021/12/01 03:34:37;;;;;;;0.20;0.20;;;;;;;9.60;100.00;97665.25;6212473;22;20402;-59
2021/12/01 03:37:43;;;;;;;0.20;0.20;;;;;;;9.66;100.00;97670.72;6212355;23;20042;-59
2021/12/01 03:40:47;;;;;;;0.10;0.10;;;;;;;9.63;100.00;97674.56;6212224;23;20167;-59
2021/12/01 03:43:49;;;;;;;0.30;0.30;;;;;;;9.56;100.00;97675.13;6212290;22;20460;-58
2021/12/01 03:46:53;;;;;;;0.28;0.28;;;;;;;9.52;100.00;97675.44;6212319;23;20078;-59
2021/12/01 03:49:56;;;;;;;0.25;0.25;;;;;;;9.39;100.00;97691.22;6224003;22;20465;-59
2021/12/01 03:52:59;;;;;;;0.17;0.17;;;;;;;9.38;100.00;97700.81;6225303;22;20027;-58
2021/12/01 03:56:02;;;;;;;0.10;0.10;;;;;;;9.37;100.00;97685.44;6222856;22;20067;-59
2021/12/01 03:59:05;;;;;;;2.45;1.05;;;;;;;9.35;100.00;97704.66;6223617;22;20023;-58
2021/12/01 04:02:20;;;;;;;0.10;0.10;;;;;;;9.26;100.00;97708.53;6205809;22;20051;-59
2021/12/01 04:05:33;;;;;;;0.10;0.10;;;;;;;9.20;100.00;97702.25;6091559;23;20486;-58
2021/12/01 04:08:41;;;;;;;0.10;0.10;;;;;;;9.14;100.00;97718.19;6180581;22;20026;-57
2021/12/01 04:11:46;;;;;;;0.10;0.10;;;;;;;9.15;100.00;97730.81;6091296;23;20048;-57
2021/12/01 04:14:54;;;;;;;9.95;0.50;;;;;;;9.14;100.00;97734.88;6109029;23;20027;-58
2021/12/01 04:18:02;;;;;;;0.17;0.17;;;;;;;9.17;100.00;97739.38;6020436;23;20053;-57
2021/12/01 04:21:08;;;;;;;2.35;0.65;;;;;;;9.22;100.00;97733.06;6086458;23;20046;-56
2021/12/01 04:24:11;;;;;;;0.10;0.10;;;;;;;9.18;100.00;97734.59;6220434;22;20106;-57
2021/12/01 04:27:14;;;;;;;4.57;0.30;;;;;;;9.18;100.00;97730.53;6221547;22;20107;-57
2021/12/01 04:30:21;;;;;;;0.68;0.30;;;;;;;9.17;100.00;97733.84;6221345;22;20042;-57
2021/12/01 04:33:24;;;;;;;0.10;0.10;;;;;;;9.35;100.00;97743.53;6219463;22;20508;-57
2021/12/01 04:36:36;;;;;;;0.20;0.20;;;;;;;9.38;100.00;97737.69;6224951;22;20167;-57
2021/12/01 04:39:40;;;;;;;0.10;0.10;;;;;;;9.43;100.00;97745.22;6239451;22;20075;-57
2021/12/01 04:42:43;;;;;;;2.28;0.73;;;;;;;9.46;100.00;97751.78;6243326;22;20043;-61
2021/12/01 04:45:48;;;;;;;0.10;0.10;;;;;;;9.53;100.00;97748.44;6243365;22;20098;-57
2021/12/01 04:48:51;;;;;;;1.85;0.30;;;;;;;9.71;100.00;97750.50;6243626;22;20066;-57
2021/12/01 04:51:58;;;;;;;0.20;0.20;;;;;;;9.68;100.00;97748.78;6242896;22;20055;-57
2021/12/01 04:55:01;;;;;;;0.20;0.20;;;;;;;9.66;100.00;97749.28;6224626;22;20337;-57
2021/12/01 04:58:04;;;;;;;0.98;0.95;;;;;;;9.68;100.00;97757.13;6223608;22;20043;-57
2021/12/01 05:01:07;;;;;;;0.20;0.20;;;;;;;9.63;100.00;97763.50;6223722;22;20031;-57
2021/12/01 05:04:11;;;;;;;0.20;0.20;;;;;;;9.59;100.00;97758.22;6222061;22;20027;-57
2021/12/01 05:07:14;;;;;;;18.98;0.47;;;;;;;9.58;100.00;97755.94;6221981;22;20036;-57
2021/12/01 05:10:17;;;;;;;1.75;0.63;;;;;;;9.52;100.00;97758.03;6213221;22;20507;-57
2021/12/01 05:13:21;;;;;;;0.57;0.40;;;;;;;9.49;100.00;97767.38;6243502;22;20026;-57
2021/12/01 05:16:24;;;;;;;0.45;0.40;;;;;;;9.49;100.00;97767.38;6219748;22;20507;-57
2021/12/01 05:19:27;;;;;;;0.15;0.15;;;;;;;9.50;100.00;97760.56;6224822;22;20089;-56
2021/12/01 05:22:30;;;;;;;0.20;0.20;;;;;;;9.51;100.00;97756.50;6225158;22;20027;-56
2021/12/01 05:25:33;;;;;;;0.20;0.20;;;;;;;9.53;100.00;97754.00;6238376;22;20031;-56
2021/12/01 05:28:40;;;;;;;0.10;0.03;;;;;;;9.50;100.00;97758.56;6243003;22;20463;-56
2021/12/01 05:31:43;;;;;;;0.10;0.10;;;;;;;9.46;100.00;97765.66;6242920;22;20035;-56
2021/12/01 05:34:47;;;;;;;0.20;0.20;;;;;;;9.41;100.00;97758.88;6216802;22;20509;-57
2021/12/01 05:37:49;;;;;;;0.47;0.40;;;;;;;9.49;100.00;97759.81;6214077;22;20082;-56
2021/12/01 05:40:53;;;;;;;0.20;0.20;;;;;;;9.54;100.00;97769.38;6212286;23;20047;-56
2021/12/01 05:43:56;;;;;;;0.30;0.30;;;;;;;9.59;100.00;97774.13;6226519;22;20341;-56
2021/12/01 05:46:59;;;;;;;0.80;0.30;;;;;;;9.60;100.00;97756.94;6226172;22;20045;-56
2021/12/01 05:50:03;;;;;;;0.15;0.15;;;;;;;9.68;100.00;97754.34;6225464;22;20030;-56
2021/12/01 05:53:07;;;;;;;0.20;0.20;;;;;;;9.64;100.00;97754.63;6224734;22;20071;-56
2021/12/01 05:56:10;;;;;;;1.67;0.75;;;;;;;9.69;100.00;97755.84;6223719;22;20067;-56
2021/12/01 05:59:13;;;;;;;0.45;0.32;;;;;;;9.72;100.00;97760.38;6223253;22;20456;-55
2021/12/01 06:02:16;;;;;;;0.10;0.10;;;;;;;9.80;100.00;97752.94;6222820;22;20044;-56
2021/12/01 06:05:20;;;;;;;0.20;0.20;;;;;;;9.79;100.00;97749.41;6225169;22;20119;-56
2021/12/01 06:08:23;;;;;;;0.20;0.20;;;;;;;9.80;100.00;97761.28;6225912;22;20023;-56
2021/12/01 06:11:26;;;;;;;0.30;0.30;;;;;;;9.83;100.00;97755.44;6220726;22;20044;-56
2021/12/01 06:14:30;;;;;;;1.85;0.85;;;;;;;9.88;100.00;97753.88;6219951;22;20377;-56
2021/12/01 06:17:35;;;;;;;0.35;0.28;;;;;;;9.85;100.00;97752.16;6213944;22;20023;-56
2021/12/01 06:20:39;;;;;;;1.60;0.75;;;;;;;9.86;100.00;97764.75;6214411;22;20089;-56
2021/12/01 06:23:42;;;;;;;0.40;0.40;;;;;;;9.85;100.00;97769.56;6213514;22;20027;-56
2021/12/01 06:26:46;;;;;;;3.20;0.68;;;;;;;9.88;100.00;97762.22;6214728;22;20085;-56
2021/12/01 06:29:49;;;;;;;10.25;0.90;;;;;;;9.87;100.00;97760.72;6214327;22;20079;-56
2021/12/01 06:32:53;;;;;;;0.10;0.10;;;;;;;9.82;100.00;97755.97;6214534;22;20028;-56
2021/12/01 06:35:55;;;;;;;0.40;0.20;;;;;;;9.72;100.00;97765.94;6226261;22;20106;-56
2021/12/01 06:38:59;;;;;;;0.38;0.38;;;;;;;9.68;100.00;97759.91;6225937;22;20023;-56
2021/12/01 06:42:02;;;;;;;10.57;0.82;;;;;;;9.71;100.00;97769.97;6225016;22;20056;-56
2021/12/01 06:45:09;;;;;;;3.13;0.55;;;;;;;9.71;100.00;97761.63;6224769;22;20099;-56
2021/12/01 06:48:12;;;;;;;0.20;0.20;;;;;;;9.63;100.00;97763.50;6222679;22;20031;-56
2021/12/01 06:51:15;;;;;;;0.75;0.45;;;;;;;9.62;100.00;97761.97;6222770;22;20031;-56
2021/12/01 06:54:18;;;;;;;2.47;0.32;;;;;;;9.59;100.00;97763.03;6214076;23;20023;-55
2021/12/01 06:57:21;;;;;;;0.60;0.35;;;;;;;9.56;100.00;97758.50;6224550;22;20026;-56
2021/12/01 07:00:25;;;;;;;5.95;0.45;;;;;;;9.56;100.00;97764.81;6225570;22;20035;-56
2021/12/01 07:03:28;;;;;;;0.30;0.30;;;;;;;9.56;100.00;97764.06;6238757;22;20069;-56
2021/12/01 07:06:31;;;;;;;10.98;0.47;;;;;;;9.56;100.00;97786.28;6226686;22;20070;-55
2021/12/01 07:09:34;;;;;;;0.73;0.43;;;;;;;9.61;100.00;97782.72;6244111;22;20091;-56
2021/12/01 07:12:38;;;;;;;1.05;0.80;;;;;;;9.54;100.00;97783.28;6244618;22;20023;-57
2021/12/01 07:15:41;;;;;;;0.13;0.13;;;;;;;9.50;100.00;97772.44;6244336;22;20023;-56
2021/12/01 07:18:44;;;;;;;0.30;0.30;;;;;;;9.49;100.00;97786.84;6243659;22;20152;-57
2021/12/01 07:21:47;;;;;;;6.95;1.45;;;;;;;9.51;100.00;97779.50;6244243;22;20392;-56
2021/12/01 07:24:50;;;;;;;6.03;2.33;;;;;;;9.49;100.00;97776.47;6244330;22;20086;-56
2021/12/01 07:27:53;;;;;;;6.03;1.25;;;;;;;9.43;100.00;97773.00;6243426;22;20078;-56
2021/12/01 07:30:56;;;;;;;2.40;0.75;;;;;;;9.40;100.00;97784.41;6226242;22;20027;-56
2021/12/01 07:33:59;;;;;;;2.75;0.70;;;;;;;9.32;100.00;97797.34;6225562;22;20028;-56
2021/12/01 07:37:02;;;;;;;0.45;0.45;;;;;;;9.28;100.00;97794.84;6224581;22;20027;-56
2021/12/01 07:40:06;;;;;;;22.48;3.80;;;;;;;9.31;100.00;97793.06;6223484;22;20468;-56
2021/12/01 07:43:08;;;;;;;1.70;0.55;;;;;;;9.28;100.00;97782.97;6222825;22;20183;-56
2021/12/01 07:46:11;;;;;;;0.60;0.20;;;;;;;9.26;100.00;97782.75;6222278;22;20024;-56
2021/12/01 07:49:14;;;;;;;0.93;0.93;;;;;;;9.20;100.00;97798.69;6221240;22;20019;-56
2021/12/01 07:52:17;;;;;;;2.20;0.70;;;;;;;9.18;100.00;97779.78;6213453;22;20027;-56
2021/12/01 07:55:20;;;;;;;4.80;1.35;;;;;;;9.18;100.00;97777.75;6220175;22;20019;-56
2021/12/01 07:58:23;;;;;;;13.43;1.05;;;;;;;9.16;100.00;97785.84;6219974;22;20027;-56
2021/12/01 08:01:26;;;;;;;3.80;1.42;;;;;;;9.24;100.00;97801.94;6224490;22;20026;-55
2021/12/01 08:04:29;;;;;;;0.30;0.30;;;;;;;9.25;100.00;97800.69;6218327;22;20150;-56
2021/12/01 08:07:35;;;;;;;0.20;0.20;;;;;;;9.27;100.00;97806.47;6211151;23;20028;-56
2021/12/01 08:10:38;;;;;;;6.90;0.63;;;;;;;9.28;100.00;97800.41;6212550;22;20082;-56
2021/12/01 08:13:41;;;;;;;0.65;0.30;;;;;;;9.21;100.00;97822.41;6213059;22;20357;-56
2021/12/01 08:16:45;;;;;;;4.57;1.25;;;;;;;9.11;100.00;97819.22;6212446;22;20357;-56
2021/12/01 08:19:47;;;;;;;0.32;0.32;;;;;;;9.05;100.00;97810.91;6212764;22;20516;-56
2021/12/01 08:22:51;;;;;;;2.65;0.90;;;;;;;9.08;100.00;97814.69;6213149;22;20031;-56
2021/12/01 08:25:54;;;;;;;0.30;0.30;;;;;;;9.07;100.00;97825.03;6213378;22;20070;-56
2021/12/01 08:28:57;;;;;;;0.10;0.10;;;;;;;9.09;100.00;97839.16;6224922;22;20464;-55
2021/12/01 08:32:00;;;;;;;5.43;1.00;;;;;;;9.12;100.00;97821.47;6224777;22;20027;-56
2021/12/01 08:35:04;;;;;;;0.75;0.52;;;;;;;9.23;100.00;97826.19;6224071;22;20075;-55
2021/12/01 08:38:07;;;;;;;6.60;0.57;;;;;;;9.23;100.00;97847.66;6223731;22;20451;-56
2021/12/01 08:41:10;;;;;;;2.88;0.47;;;;;;;9.22;100.00;97840.59;6222392;22;20027;-56
2021/12/01 08:44:14;;;;;;;2.28;0.22;;;;;;;9.30;100.00;97831.19;6221876;22;20452;-55
2021/12/01 08:47:23;;;;;;;3.20;0.20;;;;;;;9.40;100.00;97835.16;6212778;22;20476;-55
2021/12/01 08:50:26;;;;;;;0.28;0.28;;;;;;;9.48;100.00;97846.47;6212688;22;20030;-55
2021/12/01 08:53:32;;;;;;;9.52;0.95;;;;;;;9.58;100.00;97842.09;6225120;22;20160;-55
2021/12/01 08:56:35;;;;;;;4.22;0.63;;;;;;;9.56;100.00;97855.75;6238533;22;20073;-55
2021/12/01 08:59:39;;;;;;;0.10;0.10;;;;;;;9.65;100.00;97849.88;6242763;22;20024;-56
2021/12/01 09:02:42;;;;;;;1.65;0.47;;;;;;;9.75;100.00;97860.13;6243199;22;20078;-55
2021/12/01 09:05:46;;;;;;;0.65;0.65;;;;;;;9.77;100.00;97870.72;6242653;22;20031;-56
2021/12/01 09:08:49;;;;;;;0.10;0.10;;;;;;;9.81;100.00;97874.00;6243369;22;20070;-56
2021/12/01 09:11:54;;;;;;;0.90;0.10;;;;;;;9.85;100.00;97874.47;6242682;22;20373;-55
2021/12/01 09:14:57;;;;;;;19.08;0.95;;;;;;;9.87;100.00;97877.47;6224702;22;20455;-56
2021/12/01 09:18:00;;;;;;;0.85;0.15;;;;;;;9.83;100.00;97872.19;6226232;22;20019;-56
2021/12/01 09:21:04;;;;;;;4.03;1.10;;;;;;;9.83;100.00;97871.47;6225257;22;20031;-56
2021/12/01 09:24:08;;;;;;;4.25;0.63;;;;;;;9.77;100.00;97867.94;6224533;22;20533;-56
2021/12/01 09:27:11;;;;;;;14.50;0.50;;;;;;;9.76;100.00;97860.91;6223432;22;20024;-56
2021/12/01 09:30:16;;;;;;;2.30;0.55;;;;;;;9.84;100.00;97889.63;6222878;22;20404;-56
2021/12/01 09:33:19;;;;;;;3.22;1.10;;;;;;;9.87;100.00;97878.22;6222126;22;20054;-56
2021/12/01 09:36:23;;;;;;;12.18;0.50;;;;;;;9.93;100.00;97876.16;6224319;22;20155;-56
2021/12/01 09:39:26;;;;;;;3.85;0.70;;;;;;;10.01;100.00;97870.00;6220980;22;20031;-56
2021/12/01 09:42:29;;;;;;;9.68;0.90;;;;;;;10.28;100.00;97867.00;6219816;22;20031;-56
2021/12/01 09:45:32;;;;;;;0.10;0.10;;;;;;;10.38;100.00;97882.06;6218244;22;20131;-56
2021/12/01 09:48:38;;;;;;;1.58;1.13;;;;;;;10.45;100.00;97889.09;6214287;23;20023;-56
2021/12/01 09:51:41;;;;;;;0.17;0.17;;;;;;;10.34;100.00;97887.16;6214357;22;20043;-56
2021/12/01 09:54:44;;;;;;;3.67;0.35;;;;;;;10.26;100.00;97902.94;6214430;23;20020;-57
2021/12/01 09:58:05;;;;;;;0.73;0.30;;;;;;;10.18;100.00;97918.69;6214222;23;20075;-56
2021/12/01 10:01:12;;;;;;;0.28;0.10;;;;;;;10.09;100.00;97916.19;6224094;22;20055;-56
2021/12/01 10:04:15;;;;;;;0.20;0.20;;;;;;;10.12;100.00;97915.19;6221161;22;20480;-56
2021/12/01 10:07:21;;;;;;;1.58;0.30;;;;;;;10.07;100.00;97915.97;6222310;22;20027;-56
2021/12/01 10:10:23;;;;;;;0.30;0.10;;;;;;;9.94;100.00;97905.47;6213929;23;20082;-56
2021/12/01 10:13:30;;;;;;;0.20;0.20;;;;;;;9.94;100.00;97910.25;6226840;22;20032;-56
2021/12/01 10:16:37;;;;;;;1.60;0.35;;;;;;;10.05;100.00;97901.81;6213112;22;20047;-56
2021/12/01 10:19:40;;;;;;;0.57;0.57;;;;;;;10.10;100.00;97912.16;6214163;22;20028;-56
2021/12/01 10:23:16;;;;;;;0.77;0.22;;;;;;;10.07;100.00;97946.56;6214496;22;20027;-56
2021/12/01 10:26:23;;;;;;;0.32;0.32;;;;;;;9.86;100.00;97928.78;6214359;23;20108;-57
2021/12/01 10:29:40;;;;;;;14.93;0.45;;;;;;;9.65;100.00;97949.91;6219669;22;20020;-57
2021/12/01 10:33:21;;;;;;;0.30;0.30;;;;;;;9.61;100.00;97932.78;6241425;22;20409;-56
2021/12/01 10:36:26;;;;;;;8.98;0.30;;;;;;;9.66;100.00;97935.50;6220809;22;20035;-56
2021/12/01 10:39:29;;;;;;;1.48;0.65;;;;;;;9.86;100.00;97931.56;6219593;22;20129;-56
2021/12/01 10:42:32;;;;;;;4.38;0.70;;;;;;;9.94;100.00;97933.25;6225395;22;20042;-56
2021/12/01 10:45:41;;;;;;;0.10;0.10;;;;;;;10.11;100.00;97933.19;6244697;22;20085;-56
2021/12/01 10:49:00;;;;;;;2.88;2.33;;;;;;;10.14;100.00;97942.47;6244550;22;20353;-56
2021/12/01 10:52:03;;;;;;;2.85;1.02;;;;;;;10.17;100.00;97945.00;6224689;22;20028;-57
2021/12/01 10:55:20;;;;;;;0.20;0.20;;;;;;;10.13;100.00;97943.78;6223962;22;20055;-57
2021/12/01 10:58:32;;;;;;;1.17;0.43;;;;;;;10.17;100.00;97928.31;6224795;22;20023;-56
2021/12/01 11:01:37;;;;;;;0.52;0.52;;;;;;;10.14;100.00;97923.78;6238851;22;20031;-56
2021/12/01 11:04:50;;;;;;;1.17;1.08;;;;;;;10.26;100.00;97925.19;6243969;22;20099;-56
2021/12/01 11:07:53;;;;;;;0.10;0.10;;;;;;;10.20;100.00;97921.69;6244316;22;20149;-56
2021/12/01 11:11:03;;;;;;;1.30;0.70;;;;;;;10.22;100.00;97924.69;6225475;22;20035;-56
2021/12/01 11:14:17;;;;;;;0.47;0.47;;;;;;;10.18;100.00;97918.69;6222508;22;20091;-55
2021/12/01 11:17:39;;;;;;;0.30;0.30;;;;;;;10.22;100.00;97912.84;6220634;22;20725;-56
2021/12/01 11:20:47;;;;;;;0.35;0.35;;;;;;;10.34;100.00;97926.13;6240432;22;20031;-56
2021/12/01 11:24:02;;;;;;;0.60;0.60;;;;;;;10.48;100.00;97930.53;6243768;22;20123;-56
2021/12/01 11:27:05;;;;;;;0.40;0.20;;;;;;;10.65;100.00;97939.44;6224161;22;20032;-55
2021/12/01 11:30:09;;;;;;;2.05;0.38;;;;;;;10.51;100.00;97928.72;6223244;22;20154;-56
2021/12/01 11:33:17;;;;;;;0.52;0.52;;;;;;;10.21;100.00;97936.34;6222227;22;20345;-56
2021/12/01 11:36:22;;;;;;;0.63;0.47;;;;;;;10.03;100.00;97951.66;6220530;22;20077;-56
2021/12/01 11:39:29;;;;;;;0.40;0.35;;;;;;;9.85;100.00;97980.84;6219465;22;20029;-55
2021/12/01 11:42:33;;;;;;;0.10;0.10;;;;;;;9.77;100.00;97990.25;6216890;22;20257;-56
2021/12/01 11:45:37;;;;;;;0.40;0.40;;;;;;;9.34;100.00;97995.56;6213449;23;20019;-55
2021/12/01 11:48:49;;;;;;;0.40;0.40;;;;;;;8.71;100.00;97969.78;6213435;22;20024;-55
2021/12/01 11:51:57;;;;;;;0.25;0.25;;;;;;;8.31;100.00;97962.81;6213472;23;20027;-55
2021/12/01 11:55:00;;;;;;;2.35;0.47;;;;;;;8.12;100.00;97972.88;6224241;22;20074;-55
2021/12/01 11:58:03;;;;;;;0.40;0.38;;;;;;;7.88;100.00;97969.84;6223772;22;20074;-55
2021/12/01 12:01:27;;;;;;;0.35;0.35;;;;;;;7.52;100.00;97974.31;6223890;22;20342;-56
2021/12/01 12:04:38;;;;;;;0.10;0.10;;;;;;;7.38;100.00;97981.59;6217468;22;20023;-57
2021/12/01 12:07:44;;;;;;;0.20;0.20;;;;;;;7.03;100.00;98003.38;6214839;22;20103;-56
2021/12/01 12:10:47;;;;;;;0.32;0.32;;;;;;;6.95;100.00;97993.25;6214969;23;20095;-56
2021/12/01 12:14:13;;;;;;;0.30;0.30;;;;;;;7.29;100.00;97983.84;6213184;22;20120;-56
2021/12/01 12:17:19;;;;;;;4.72;0.82;;;;;;;7.44;100.00;97979.59;6212705;22;20078;-55
2021/12/01 12:20:32;;;;;;;0.20;0.20;;;;;;;7.54;100.00;97999.50;6213186;22;20055;-55
2021/12/01 12:23:35;;;;;;;1.92;0.95;;;;;;;7.69;100.00;97985.44;6211969;22;20106;-56
2021/12/01 12:26:44;;;;;;;8.88;1.23;;;;;;;7.75;100.00;97981.44;6212535;22;20067;-56
2021/12/01 12:29:47;;;;;;;4.70;1.15;;;;;;;7.78;100.00;97976.88;6212404;22;20142;-56
2021/12/01 12:33:16;;;;;;;16.88;3.15;;;;;;;7.93;100.00;97977.38;6212969;22;20035;-56
2021/12/01 12:36:42;;;;;;;8.18;2.75;;;;;;;8.24;100.00;97977.16;6212437;23;20027;-56
2021/12/01 12:39:47;;;;;;;11.80;1.73;;;;;;;8.51;100.00;97983.97;6212373;23;20051;-56
2021/12/01 12:43:09;;;;;;;16.05;2.22;;;;;;;8.68;100.00;97982.69;6212511;22;20035;-56
2021/12/01 12:46:19;;;;;;;9.23;2.47;;;;;;;8.64;100.00;97976.59;6222469;22;20027;-56
2021/12/01 12:49:36;;;;;;;2.45;1.65;;;;;;;8.58;100.00;97975.09;6219445;23;20035;-56
2021/12/01 12:52:42;;;;;;;2.85;0.75;;;;;;;8.55;100.00;97963.03;6224763;22;20349;-56
2021/12/01 12:55:46;;;;;;;0.65;0.38;;;;;;;8.53;100.00;97962.78;6212853;23;20078;-56
2021/12/01 12:58:49;;;;;;;0.63;0.30;;;;;;;8.59;100.00;97965.53;6212359;22;20091;-55
2021/12/01 13:01:55;;;;;;;0.40;0.30;;;;;;;8.61;100.00;97966.53;6213187;23;20472;-55
2021/12/01 13:05:05;;;;;;;0.20;0.20;;;;;;;8.68;100.00;97968.81;6224745;22;20043;-55
2021/12/01 13:08:32;;;;;;;1.20;0.80;;;;;;;8.76;100.00;97975.31;6222174;22;20047;-55
2021/12/01 13:11:36;;;;;;;0.90;0.55;;;;;;;8.78;100.00;97958.94;6214211;22;20031;-55
2021/12/01 13:14:39;;;;;;;1.58;0.90;;;;;;;8.74;100.00;97963.97;6213020;23;20028;-55
2021/12/01 13:17:46;;;;;;;4.35;0.90;;;;;;;8.69;100.00;97973.06;6212662;23;20096;-56
2021/12/01 13:20:56;;;;;;;6.20;0.88;;;;;;;8.67;100.00;97981.16;6212928;23;20023;-55
2021/12/01 13:23:59;;;;;;;2.28;1.17;;;;;;;8.65;100.00;97986.44;6224034;22;20460;-55
2021/12/01 13:27:02;;;;;;;3.40;0.40;;;;;;;8.60;100.00;97986.47;6224068;22;20047;-55
2021/12/01 13:30:11;;;;;;;3.28;1.13;;;;;;;8.54;100.00;97991.25;6223472;22;20055;-55
2021/12/01 13:33:14;;;;;;;0.25;0.25;;;;;;;8.45;100.00;97997.81;6212605;22;20027;-55
2021/12/01 13:36:17;;;;;;;0.70;0.70;;;;;;;8.53;100.00;98011.97;6212398;23;20079;-55
2021/12/01 13:39:26;;;;;;;1.00;0.88;;;;;;;8.57;100.00;98031.88;6219384;22;20484;-55
2021/12/01 13:42:32;;;;;;;2.70;0.40;;;;;;;8.57;100.00;98031.88;6217587;22;20110;-55
2021/12/01 13:45:35;;;;;;;0.95;0.35;;;;;;;8.58;100.00;98045.22;6237830;22;20078;-55
2021/12/01 13:48:55;;;;;;;2.33;0.22;;;;;;;8.69;100.00;98038.91;6242571;22;20051;-56
2021/12/01 13:51:59;;;;;;;1.05;0.77;;;;;;;8.77;100.00;98042.69;6225170;22;20024;-54
2021/12/01 13:55:23;;;;;;;0.95;0.93;;;;;;;8.91;100.00;98055.53;6223752;22;20147;-54
2021/12/01 13:58:26;;;;;;;0.20;0.20;;;;;;;8.95;100.00;98134.50;6218206;22;20089;-55
2021/12/01 14:01:29;;;;;;;0.30;0.30;;;;;;;8.58;100.00;98116.59;6225263;22;20111;-57
2021/12/01 14:04:32;;;;;;;0.20;0.20;;;;;;;8.15;100.00;98110.47;6218169;22;20023;-56
2021/12/01 14:07:42;;;;;;;0.13;0.13;;;;;;;7.91;100.00;98122.00;6213996;22;20023;-56
2021/12/01 14:11:29;;;;;;;0.10;0.10;;;;;;;7.96;100.00;98112.22;6214044;23;20070;-54
2021/12/01 14:14:32;;;;;;;1.75;0.57;;;;;;;7.95;100.00;98122.53;6218591;22;20050;-57
2021/12/01 14:17:37;;;;;;;0.20;0.20;;;;;;;7.94;100.00;98131.34;6213991;22;20340;-57
2021/12/01 14:20:41;;;;;;;17.17;0.45;;;;;;;7.93;100.00;98138.13;6214053;22;20094;-57
2021/12/01 14:36:34;;;;;;;1.85;1.02;;;;;;;8.22;100.00;98169.00;6162975;22;1619100;-52
2021/12/01 14:39:39;;;;;;;0.38;0.30;;;;;;;8.20;100.00;98176.28;6220087;23;20031;-52
2021/12/01 14:42:46;;;;;;;0.25;0.25;;;;;;;8.11;100.00;98180.03;6190524;23;20142;-53
2021/12/01 14:45:49;;;;;;;0.40;0.40;;;;;;;8.04;100.00;98185.31;6201718;22;20054;-52
2021/12/01 14:49:15;;;;;;;0.40;0.40;;;;;;;8.04;100.00;98196.38;6221102;23;20089;-52